createdAt,value
2018-03-25T00:01:42.958Z,50.30
2018-03-25T00:04:10.792Z,50.70
2018-03-25T00:06:38.476Z,50.70
2018-03-25T00:09:06.177Z,50.50
2018-03-25T00:11:34.020Z,50.40
2018-03-25T00:14:01.831Z,50.40
2018-03-25T00:16:29.684Z,50.40
2018-03-25T00:18:57.541Z,50.40
2018-03-25T00:21:26.104Z,50.60
2018-03-25T00:23:53.956Z,50.60
2018-03-25T00:26:21.807Z,50.70
2018-03-25T00:28:49.556Z,50.50
2018-03-25T00:31:17.408Z,50.40
2018-03-25T00:33:45.159Z,50.70
2018-03-25T00:36:13.008Z,50.80
2018-03-25T00:38:40.692Z,50.90
2018-03-25T00:41:08.424Z,51.00
2018-03-25T00:43:36.974Z,51.50
2018-03-25T00:46:04.712Z,50.80
2018-03-25T00:48:32.464Z,50.70
2018-03-25T00:51:00.151Z,50.60
2018-03-25T00:53:28.690Z,50.60
2018-03-25T00:55:56.542Z,50.50
2018-03-25T00:58:24.229Z,50.60
2018-03-25T01:00:52.045Z,50.60
2018-03-25T01:03:19.891Z,50.50
2018-03-25T01:05:47.575Z,50.30
2018-03-25T01:08:15.391Z,50.20
2018-03-25T01:10:43.124Z,50.20
2018-03-25T01:13:10.808Z,50.10
2018-03-25T01:15:51.258Z,49.80
2018-03-25T01:18:19.802Z,49.70
2018-03-25T01:20:47.654Z,49.60
2018-03-25T01:23:15.508Z,49.60
2018-03-25T01:25:43.357Z,49.50
2018-03-25T01:28:11.208Z,49.40
2018-03-25T01:30:39.060Z,49.20
2018-03-25T01:33:06.815Z,49.20
2018-03-25T01:35:34.664Z,49.20
2018-03-25T01:38:02.516Z,49.20
2018-03-25T01:40:30.368Z,49.20
2018-03-25T01:42:58.226Z,49.40
2018-03-25T01:45:26.070Z,49.40
2018-03-25T01:47:53.826Z,48.90
2018-03-25T01:50:21.677Z,49.40
2018-03-25T01:52:49.522Z,49.30
2018-03-25T01:55:17.216Z,49.30
2018-03-25T01:57:44.944Z,49.60
2018-03-25T02:00:12.635Z,49.60
2018-03-25T02:02:40.312Z,49.80
2018-03-25T02:05:08.064Z,49.70
2018-03-25T02:07:35.754Z,49.60
2018-03-25T02:10:03.567Z,49.40
2018-03-25T02:12:31.418Z,49.40
2018-03-25T02:14:59.168Z,49.20
2018-03-25T02:17:27.019Z,49.10
2018-03-25T02:19:54.870Z,49.20
2018-03-25T02:22:22.722Z,49.10
2018-03-25T02:24:50.574Z,49.20
2018-03-25T02:27:18.313Z,49.20
2018-03-25T02:29:45.996Z,49.40
2018-03-25T02:32:14.539Z,48.90
2018-03-25T02:34:42.265Z,48.90
2018-03-25T02:37:09.951Z,48.90
2018-03-25T02:39:38.503Z,49.10
2018-03-25T02:42:06.216Z,48.80
2018-03-25T02:44:34.004Z,48.80
2018-03-25T02:47:01.857Z,48.90
2018-03-25T02:49:29.717Z,48.90
2018-03-25T02:51:57.559Z,48.90
2018-03-25T02:54:25.446Z,49.50
2018-03-25T02:56:53.368Z,48.70
2018-03-25T02:59:21.220Z,49.00
2018-03-25T03:01:49.069Z,49.10
2018-03-25T03:04:16.926Z,48.90
2018-03-25T03:06:44.773Z,48.80
2018-03-25T03:09:12.630Z,48.90
2018-03-25T03:11:40.415Z,48.90
2018-03-25T03:14:09.146Z,49.30
2018-03-25T03:16:36.999Z,49.60
2018-03-25T03:19:04.861Z,49.20
2018-03-25T03:21:33.320Z,49.30
2018-03-25T03:24:01.170Z,49.60
2018-03-25T03:26:28.847Z,49.60
2018-03-25T03:28:57.346Z,49.10
2018-03-25T03:31:25.020Z,49.10
2018-03-25T03:33:52.700Z,49.00
2018-03-25T03:36:21.213Z,48.80
2018-03-25T03:38:48.912Z,48.80
2018-03-25T03:41:17.463Z,48.80
2018-03-25T03:43:45.314Z,48.80
2018-03-25T03:46:13.103Z,48.70
2018-03-25T03:48:40.784Z,48.70
2018-03-25T03:51:08.669Z,48.60
2018-03-25T03:53:36.521Z,48.80
2018-03-25T03:56:04.212Z,48.80
2018-03-25T03:58:31.920Z,48.80
2018-03-25T04:00:59.596Z,48.90
2018-03-25T04:03:28.131Z,48.90
2018-03-25T04:05:55.849Z,48.90
2018-03-25T04:08:23.580Z,48.80
2018-03-25T04:10:51.263Z,48.80
2018-03-25T04:13:19.029Z,48.80
2018-03-25T04:15:46.884Z,48.90
2018-03-25T04:18:14.733Z,49.00
2018-03-25T04:20:42.580Z,49.10
2018-03-25T04:23:10.432Z,49.20
2018-03-25T04:25:38.284Z,49.20
2018-03-25T04:28:06.037Z,48.90
2018-03-25T04:30:33.889Z,48.80
2018-03-25T04:33:01.744Z,48.80
2018-03-25T04:35:29.591Z,49.00
2018-03-25T04:37:57.342Z,49.00
2018-03-25T04:40:25.119Z,49.00
2018-03-25T04:42:53.576Z,48.90
2018-03-25T04:45:22.123Z,48.90
2018-03-25T04:47:49.975Z,48.70
2018-03-25T04:50:17.725Z,48.80
2018-03-25T04:52:45.457Z,49.50
2018-03-25T04:55:13.196Z,48.80
2018-03-25T04:57:40.876Z,48.80
2018-03-25T05:00:08.636Z,48.80
2018-03-25T05:02:36.475Z,48.80
2018-03-25T05:05:04.156Z,49.50
2018-03-25T05:07:32.652Z,48.90
2018-03-25T05:10:00.327Z,48.90
2018-03-25T05:12:28.008Z,49.10
2018-03-25T05:14:56.488Z,48.90
2018-03-25T05:17:24.167Z,48.80
2018-03-25T05:19:51.847Z,48.90
2018-03-25T05:22:19.622Z,48.80
2018-03-25T05:24:48.163Z,48.90
2018-03-25T05:27:16.018Z,48.80
2018-03-25T05:29:43.763Z,49.70
2018-03-25T05:32:11.513Z,49.20
2018-03-25T05:34:39.366Z,49.30
2018-03-25T05:37:07.058Z,49.10
2018-03-25T05:39:34.867Z,49.10
2018-03-25T05:42:02.720Z,49.20
2018-03-25T05:44:30.467Z,49.10
2018-03-25T05:46:58.320Z,49.20
2018-03-25T05:49:26.170Z,49.30
2018-03-25T05:51:53.920Z,49.40
2018-03-25T05:54:21.772Z,49.60
2018-03-25T05:56:49.544Z,49.60
2018-03-25T05:59:18.089Z,49.50
2018-03-25T06:01:45.832Z,49.40
2018-03-25T06:04:13.511Z,49.50
2018-03-25T06:06:41.971Z,50.00
2018-03-25T06:09:10.520Z,50.30
2018-03-25T06:11:38.207Z,50.30
2018-03-25T06:14:06.021Z,50.40
2018-03-25T06:16:33.873Z,50.40
2018-03-25T06:19:01.552Z,50.50
2018-03-25T06:21:30.001Z,51.10
2018-03-25T06:23:57.728Z,51.10
2018-03-25T06:26:25.399Z,51.30
2018-03-25T06:28:53.955Z,51.40
2018-03-25T06:31:21.680Z,51.40
2018-03-25T06:33:49.364Z,51.70
2018-03-25T06:36:17.914Z,51.80
2018-03-25T06:38:45.767Z,51.80
2018-03-25T06:41:13.627Z,52.00
2018-03-25T06:43:41.319Z,52.00
2018-03-25T06:46:09.063Z,52.20
2018-03-25T06:48:36.991Z,52.20
2018-03-25T06:51:05.439Z,53.00
2018-03-25T06:53:33.168Z,52.90
2018-03-25T06:56:00.855Z,53.30
2018-03-25T06:58:29.296Z,53.70
2018-03-25T07:00:57.152Z,53.70
2018-03-25T07:03:24.841Z,53.90
2018-03-25T07:05:52.572Z,54.00
2018-03-25T07:08:21.016Z,54.20
2018-03-25T07:10:48.865Z,54.10
2018-03-25T07:13:16.824Z,54.10
2018-03-25T07:15:44.670Z,54.20
2018-03-25T07:18:12.523Z,54.10
2018-03-25T07:20:40.272Z,54.20
2018-03-25T07:23:08.123Z,54.30
2018-03-25T07:25:35.875Z,54.30
2018-03-25T07:28:03.626Z,54.30
2018-03-25T07:30:31.340Z,54.40
2018-03-25T07:32:59.071Z,54.60
2018-03-25T07:35:26.748Z,54.90
2018-03-25T07:37:55.237Z,55.00
2018-03-25T07:40:22.952Z,55.00
2018-03-25T07:42:50.646Z,54.90
2018-03-25T07:45:19.138Z,55.80
2018-03-25T07:47:47.636Z,54.70
2018-03-25T07:50:16.264Z,54.70
2018-03-25T07:52:44.906Z,55.00
2018-03-25T07:55:13.680Z,55.00
2018-03-25T07:57:41.531Z,55.50
2018-03-25T08:00:09.252Z,55.50
2018-03-25T08:02:36.976Z,55.30
2018-03-25T08:05:04.687Z,55.00
2018-03-25T08:07:33.353Z,55.10
2018-03-25T08:10:01.202Z,55.10
2018-03-25T08:12:29.053Z,55.20
2018-03-25T08:14:56.802Z,55.60
2018-03-25T08:17:24.552Z,55.60
2018-03-25T08:19:52.404Z,55.30
2018-03-25T08:22:20.088Z,55.20
2018-03-25T08:24:47.780Z,55.20
2018-03-25T08:27:15.521Z,55.20
2018-03-25T08:29:43.220Z,55.50
2018-03-25T08:32:11.786Z,55.00
2018-03-25T08:34:40.281Z,54.50
2018-03-25T08:37:07.968Z,54.40
2018-03-25T08:39:35.688Z,54.20
2018-03-25T08:42:03.400Z,54.20
2018-03-25T08:44:31.951Z,54.30
2018-03-25T08:47:00.515Z,54.30
2018-03-25T08:49:28.367Z,54.30
2018-03-25T08:51:56.239Z,54.20
2018-03-25T08:54:24.815Z,54.20
2018-03-25T08:56:53.315Z,54.50
2018-03-25T08:59:21.001Z,54.40
2018-03-25T09:01:48.854Z,54.50
2018-03-25T09:04:16.609Z,54.70
2018-03-25T09:06:44.396Z,54.90
2018-03-25T09:09:12.716Z,55.60
2018-03-25T09:11:40.568Z,55.20
2018-03-25T09:14:08.421Z,55.00
2018-03-25T09:16:36.276Z,55.30
2018-03-25T09:19:04.132Z,55.10
2018-03-25T09:21:31.978Z,55.20
2018-03-25T09:23:59.659Z,55.10
2018-03-25T09:26:27.476Z,54.80
2018-03-25T09:28:55.200Z,54.80
2018-03-25T09:31:22.884Z,54.70
2018-03-25T09:33:51.545Z,54.60
2018-03-25T09:36:19.269Z,54.30
2018-03-25T09:38:46.944Z,54.60
2018-03-25T09:41:14.791Z,54.50
2018-03-25T09:43:42.645Z,54.30
2018-03-25T09:46:10.391Z,54.10
2018-03-25T09:48:38.243Z,54.30
2018-03-25T09:51:06.100Z,54.60
2018-03-25T09:53:33.849Z,54.80
2018-03-25T09:56:01.699Z,54.70
2018-03-25T09:58:29.475Z,54.50
2018-03-25T10:04:09.588Z,54.60
2018-03-25T10:06:37.439Z,54.80
2018-03-25T10:09:05.297Z,55.00
2018-03-25T10:11:33.166Z,55.10
2018-03-25T10:14:01.714Z,55.20
2018-03-25T10:16:29.566Z,55.10
2018-03-25T10:18:57.376Z,55.40
2018-03-25T10:21:25.167Z,55.60
2018-03-25T10:23:53.019Z,55.40
2018-03-25T10:26:20.767Z,55.00
2018-03-25T10:28:48.620Z,54.60
2018-03-25T10:31:16.368Z,54.30
2018-03-25T10:33:44.220Z,54.30
2018-03-25T10:36:12.071Z,54.20
2018-03-25T10:38:39.822Z,54.30
2018-03-25T10:41:07.775Z,54.10
2018-03-25T10:43:35.578Z,54.20
2018-03-25T10:46:03.380Z,54.30
2018-03-25T10:48:31.235Z,54.10
2018-03-25T10:50:59.082Z,53.40
2018-03-25T10:53:26.935Z,53.00
2018-03-25T10:55:54.785Z,53.00
2018-03-25T10:58:22.540Z,52.80
2018-03-25T11:00:50.386Z,53.00
2018-03-25T11:03:18.243Z,53.00
2018-03-25T11:05:45.989Z,52.80
2018-03-25T11:08:13.839Z,52.80
2018-03-25T11:10:41.588Z,52.20
2018-03-25T11:13:09.439Z,51.90
2018-03-25T11:15:37.296Z,51.60
2018-03-25T11:18:05.146Z,51.70
2018-03-25T11:20:32.895Z,50.40
2018-03-25T11:23:00.749Z,50.50
2018-03-25T11:25:28.604Z,49.80
2018-03-25T11:27:56.450Z,49.40
2018-03-25T11:30:24.199Z,48.20
2018-03-25T11:32:52.051Z,48.60
2018-03-25T11:35:20.006Z,48.90
2018-03-25T11:37:47.757Z,49.60
2018-03-25T11:40:15.608Z,49.50
2018-03-25T11:42:43.460Z,48.70
2018-03-25T11:45:11.310Z,49.00
2018-03-25T11:47:39.160Z,49.60
2018-03-25T11:50:07.119Z,49.90
2018-03-25T11:52:35.689Z,50.10
2018-03-25T11:55:03.544Z,50.10
2018-03-25T11:57:31.391Z,49.90
2018-03-25T11:59:59.327Z,50.20
2018-03-25T12:02:27.056Z,50.00
2018-03-25T12:04:54.737Z,49.30
2018-03-25T12:07:22.591Z,49.20
2018-03-25T12:09:50.443Z,49.50
2018-03-25T12:12:18.295Z,49.50
2018-03-25T12:14:45.967Z,49.60
2018-03-25T12:17:14.513Z,49.50
2018-03-25T12:19:42.362Z,49.50
2018-03-25T12:22:10.112Z,49.40
2018-03-25T12:24:37.848Z,49.40
2018-03-25T12:27:05.612Z,49.30
2018-03-25T12:29:33.362Z,49.20
2018-03-25T12:32:01.214Z,49.20
2018-03-25T12:34:28.969Z,48.70
2018-03-25T12:36:56.688Z,49.10
2018-03-25T12:39:24.462Z,49.00
2018-03-25T12:41:52.313Z,49.50
2018-03-25T12:44:20.062Z,49.50
2018-03-25T12:46:47.851Z,49.30
2018-03-25T12:49:15.705Z,49.20
2018-03-25T12:51:43.621Z,48.90
2018-03-25T12:54:11.470Z,48.40
2018-03-25T12:56:39.219Z,49.00
2018-03-25T12:59:07.181Z,48.70
2018-03-25T13:01:35.759Z,48.80
2018-03-25T13:04:03.699Z,48.70
2018-03-25T13:06:31.489Z,48.70
2018-03-25T13:08:59.301Z,47.60
2018-03-25T13:11:27.151Z,47.10
2018-03-25T13:13:54.899Z,47.10
2018-03-25T13:16:22.751Z,47.50
2018-03-25T13:18:50.461Z,45.50
2018-03-25T13:21:18.352Z,44.30
2018-03-25T13:23:46.103Z,44.50
2018-03-25T13:26:13.954Z,44.70
2018-03-25T13:28:41.805Z,45.00
2018-03-25T13:31:10.477Z,45.90
2018-03-25T13:33:39.157Z,45.70
2018-03-25T13:36:07.003Z,45.60
2018-03-25T13:38:34.853Z,44.80
2018-03-25T13:41:02.602Z,44.60
2018-03-25T13:43:30.352Z,45.70
2018-03-25T13:45:58.205Z,45.70
2018-03-25T13:48:25.954Z,45.20
2018-03-25T13:50:53.820Z,45.70
2018-03-25T13:53:22.372Z,44.50
2018-03-25T13:55:50.329Z,44.40
2018-03-25T13:58:18.179Z,44.90
2018-03-25T14:00:46.031Z,45.20
2018-03-25T14:03:13.881Z,45.80
2018-03-25T14:05:41.640Z,46.10
2018-03-25T14:08:09.483Z,47.00
2018-03-25T14:10:37.443Z,48.00
2018-03-25T14:13:05.291Z,47.20
2018-03-25T14:15:33.147Z,46.80
2018-03-25T14:18:00.898Z,46.90
2018-03-25T14:20:28.749Z,47.80
2018-03-25T14:22:56.440Z,48.30
2018-03-25T14:25:24.244Z,48.30
2018-03-25T14:27:51.992Z,48.50
2018-03-25T14:30:19.781Z,48.40
2018-03-25T14:32:47.695Z,48.30
2018-03-25T14:35:15.547Z,47.80
2018-03-25T14:37:43.398Z,48.40
2018-03-25T14:40:11.150Z,47.40
2018-03-25T14:42:39.021Z,46.50
2018-03-25T14:45:07.508Z,45.90
2018-03-25T14:47:35.385Z,45.70
2018-03-25T14:50:03.274Z,45.50
2018-03-25T14:52:31.058Z,44.60
2018-03-25T14:54:59.693Z,46.30
2018-03-25T14:57:27.442Z,46.30
2018-03-25T14:59:55.304Z,46.40
2018-03-25T15:02:23.146Z,46.80
2018-03-25T15:04:51.000Z,47.20
2018-03-25T15:07:18.849Z,47.60
2018-03-25T15:09:46.702Z,47.60
2018-03-25T15:12:14.450Z,48.00
2018-03-25T15:14:44.046Z,48.30
2018-03-25T15:17:12.715Z,49.30
2018-03-25T15:19:40.509Z,49.20
2018-03-25T15:22:08.417Z,48.90
2018-03-25T15:24:36.107Z,48.70
2018-03-25T15:27:03.918Z,48.20
2018-03-25T15:29:31.770Z,47.50
2018-03-25T15:31:59.622Z,47.60
2018-03-25T15:34:27.476Z,48.50
2018-03-25T15:36:55.329Z,48.00
2018-03-25T15:39:23.279Z,48.20
2018-03-25T15:41:51.039Z,48.30
2018-03-25T15:44:18.799Z,48.20
2018-03-25T15:46:47.448Z,48.20
2018-03-25T15:49:15.300Z,48.20
2018-03-25T15:51:43.153Z,48.00
2018-03-25T15:54:10.903Z,47.40
2018-03-25T15:56:38.781Z,47.00
2018-03-25T15:59:07.543Z,47.10
2018-03-25T16:01:36.040Z,48.80
2018-03-25T16:04:03.949Z,48.00
2018-03-25T16:06:31.699Z,48.80
2018-03-25T16:08:59.654Z,49.50
2018-03-25T16:11:27.504Z,50.00
2018-03-25T16:13:55.359Z,50.20
2018-03-25T16:16:23.208Z,50.20
2018-03-25T16:18:50.958Z,50.00
2018-03-25T16:21:18.809Z,50.00
2018-03-25T16:23:46.660Z,49.80
2018-03-25T16:26:14.518Z,49.80
2018-03-25T16:28:42.366Z,49.80
2018-03-25T16:31:10.220Z,49.70
2018-03-25T16:33:38.079Z,49.50
2018-03-25T16:36:05.923Z,49.30
2018-03-25T16:38:34.597Z,49.30
2018-03-25T16:41:02.388Z,49.30
2018-03-25T16:43:30.298Z,49.90
2018-03-25T16:45:58.620Z,50.30
2018-03-25T16:48:26.512Z,50.30
2018-03-25T16:50:54.262Z,50.50
2018-03-25T16:53:22.135Z,50.40
2018-03-25T16:55:50.624Z,50.70
2018-03-25T16:58:18.430Z,50.70
2018-03-25T17:00:46.282Z,51.00
2018-03-25T17:03:14.080Z,51.10
2018-03-25T17:05:41.905Z,51.30
2018-03-25T17:08:09.634Z,51.50
2018-03-25T17:10:38.202Z,51.80
2018-03-25T17:13:06.066Z,52.20
2018-03-25T17:15:34.260Z,52.50
2018-03-25T17:18:02.066Z,51.90
2018-03-25T17:20:29.920Z,51.40
2018-03-25T17:22:57.777Z,51.30
2018-03-25T17:25:25.642Z,51.30
2018-03-25T17:27:54.292Z,52.40
2018-03-25T17:30:22.048Z,52.30
2018-03-25T17:32:49.893Z,52.30
2018-03-25T17:35:17.633Z,51.80
2018-03-25T17:37:45.316Z,51.00
2018-03-25T17:40:13.968Z,51.40
2018-03-25T17:42:41.814Z,51.30
2018-03-25T17:45:09.562Z,51.80
2018-03-25T17:47:37.521Z,51.90
2018-03-25T17:50:05.388Z,52.00
2018-03-25T17:52:33.938Z,52.50
2018-03-25T17:55:01.801Z,52.40
2018-03-25T17:57:29.642Z,51.80
2018-03-25T17:59:57.506Z,52.10
2018-03-25T18:02:25.349Z,52.30
2018-03-25T18:04:53.094Z,52.50
2018-03-25T18:07:20.843Z,52.80
2018-03-25T18:09:48.703Z,52.80
2018-03-25T18:12:16.550Z,53.00
2018-03-25T18:14:44.341Z,52.80
2018-03-25T18:17:33.463Z,52.70
2018-03-25T18:19:40.004Z,52.70
2018-03-25T18:22:08.669Z,52.20
2018-03-25T18:24:36.563Z,52.30
2018-03-25T18:27:04.480Z,54.40
2018-03-25T18:29:32.228Z,55.00
2018-03-25T18:32:00.079Z,54.80
2018-03-25T18:34:27.776Z,54.70
2018-03-25T18:36:55.583Z,55.00
2018-03-25T18:39:23.535Z,54.80
2018-03-25T18:41:51.384Z,54.70
2018-03-25T18:44:19.236Z,54.50
2018-03-25T18:46:46.985Z,54.20
2018-03-25T18:49:14.850Z,54.30
2018-03-25T18:51:43.507Z,54.50
2018-03-25T18:54:11.360Z,54.50
2018-03-25T18:56:39.213Z,54.40
2018-03-25T18:59:07.881Z,53.90
2018-03-25T19:01:35.634Z,53.90
2018-03-25T19:04:03.486Z,53.30
2018-03-25T19:06:31.644Z,53.70
2018-03-25T19:08:59.496Z,54.00
2018-03-25T19:11:27.350Z,54.00
2018-03-25T19:13:55.260Z,54.60
2018-03-25T19:16:23.153Z,54.90
2018-03-25T19:18:50.903Z,54.90
2018-03-25T19:21:18.652Z,54.70
2018-03-25T19:23:46.404Z,54.30
2018-03-25T19:26:14.253Z,54.00
2018-03-25T19:28:42.415Z,53.80
2018-03-25T19:31:10.264Z,53.80
2018-03-25T19:33:38.117Z,53.40
2018-03-25T19:36:05.970Z,53.20
2018-03-25T19:38:33.925Z,53.10
2018-03-25T19:41:01.776Z,53.10
2018-03-25T19:43:29.628Z,53.00
2018-03-25T19:45:57.378Z,53.00
2018-03-25T19:48:25.229Z,52.80
2018-03-25T19:50:53.081Z,52.80
2018-03-25T19:53:21.239Z,53.00
2018-03-25T19:55:48.988Z,52.90
2018-03-25T19:58:16.840Z,53.20
2018-03-25T20:00:44.588Z,54.00
2018-03-25T20:03:12.441Z,53.30
2018-03-25T20:05:40.295Z,52.80
2018-03-25T20:08:08.247Z,52.50
2018-03-25T20:10:36.101Z,52.50
2018-03-25T20:13:03.850Z,52.50
2018-03-25T20:15:31.702Z,52.30
2018-03-25T20:17:59.557Z,52.20
2018-03-25T20:20:27.311Z,52.00
2018-03-25T20:22:55.162Z,51.90
2018-03-25T20:25:22.914Z,52.30
2018-03-25T20:27:50.969Z,52.70
2018-03-25T20:30:18.831Z,53.30
2018-03-25T20:32:46.674Z,53.30
2018-03-25T20:35:14.524Z,53.50
2018-03-25T20:37:42.580Z,53.80
2018-03-25T20:40:10.434Z,54.00
2018-03-25T20:42:41.662Z,53.50
2018-03-25T20:45:09.620Z,53.60
2018-03-25T20:47:37.371Z,53.70
2018-03-25T20:50:05.733Z,53.90
2018-03-25T20:52:33.584Z,53.90
2018-03-25T20:55:01.437Z,53.80
2018-03-25T20:57:38.932Z,53.50
2018-03-25T21:00:07.587Z,52.50
2018-03-25T21:02:36.271Z,52.70
2018-03-25T21:05:04.825Z,53.10
2018-03-25T21:07:32.573Z,53.10
2018-03-25T21:10:00.425Z,53.00
2018-03-25T21:12:28.276Z,53.30
2018-03-25T21:14:56.127Z,53.50
2018-03-25T21:17:23.981Z,53.40
2018-03-25T21:19:51.750Z,53.40
2018-03-25T21:22:20.414Z,53.50
2018-03-25T21:24:49.072Z,53.30
2018-03-25T21:27:16.922Z,53.30
2018-03-25T21:29:44.773Z,53.20
2018-03-25T21:32:12.529Z,53.30
2018-03-25T21:34:40.271Z,54.00
2018-03-25T21:37:08.332Z,53.60
2018-03-25T21:39:36.189Z,53.50
2018-03-25T21:42:04.036Z,53.60
2018-03-25T21:44:31.793Z,53.80
2018-03-25T21:46:59.636Z,53.40
2018-03-25T21:49:27.389Z,53.00
2018-03-25T21:51:55.239Z,52.90
2018-03-25T21:54:22.936Z,52.80
2018-03-25T21:56:50.836Z,52.70
2018-03-25T21:59:18.587Z,52.80
2018-03-25T22:01:46.336Z,52.80
2018-03-25T22:04:14.187Z,52.70
2018-03-25T22:06:41.937Z,52.50
2018-03-25T22:09:10.404Z,52.50
2018-03-25T22:11:38.254Z,52.50
2018-03-25T22:14:06.062Z,52.80
2018-03-25T22:16:33.857Z,52.70
2018-03-25T22:19:01.611Z,52.70
2018-03-25T22:21:29.459Z,52.80
2018-03-25T22:23:57.210Z,53.00
2018-03-25T22:26:25.162Z,53.20
2018-03-25T22:28:52.914Z,53.20
2018-03-25T22:31:20.608Z,53.20
2018-03-25T22:33:48.412Z,53.20
2018-03-25T22:36:16.159Z,53.10
2018-03-25T22:38:43.909Z,53.20
2018-03-25T22:41:11.658Z,53.10
2018-03-25T22:43:39.509Z,53.20
2018-03-25T22:46:07.262Z,53.20
2018-03-25T22:48:35.118Z,53.10
2018-03-25T22:51:03.008Z,53.00
2018-03-25T22:53:30.819Z,53.10
2018-03-25T22:55:58.668Z,53.00
2018-03-25T22:58:26.530Z,53.00
2018-03-25T23:00:54.372Z,52.90
2018-03-25T23:03:22.229Z,52.70
2018-03-25T23:05:50.075Z,52.40
2018-03-25T23:08:17.826Z,52.70
2018-03-25T23:10:45.575Z,52.40
2018-03-25T23:13:13.426Z,52.30
2018-03-25T23:15:41.278Z,52.30
2018-03-25T23:18:09.128Z,52.10
2018-03-25T23:20:36.984Z,52.10
2018-03-25T23:23:04.835Z,51.80
2018-03-25T23:25:32.688Z,51.80
2018-03-25T23:28:06.720Z,51.70
2018-03-25T23:30:34.536Z,51.70
2018-03-25T23:33:02.351Z,51.70
2018-03-25T23:35:30.134Z,51.60
2018-03-25T23:37:57.987Z,51.40
2018-03-25T23:40:25.736Z,51.20
2018-03-25T23:42:53.484Z,51.10
2018-03-25T23:45:21.337Z,51.20
2018-03-25T23:47:49.135Z,51.30
2018-03-25T23:50:17.776Z,51.50
2018-03-25T23:52:45.608Z,51.50
2018-03-25T23:55:13.461Z,52.50
2018-03-25T23:57:41.217Z,52.00
